Midway, Florida
Current Conditions -  °F | °C
As of 10:15 PM on Monday 20 Oct 2014 (Local Time) from K2J9 Reporting Station
Overcast Overcast  
Wind Chill: 66°   Ceiling: 4400
Heat Index: 66°   Visibility: 10mi
Dew Point: 63°   Wind: 0mph
Humidity: 88%   Direction: NA
Pressure: 30.02"   Gusts: NA
Location:  30.5°N, 84.45°W
Report Text: K2J9 210215Z AUTO 00000KT 10SM BKN044 OVC055 19/17 A3002 RMK AO1
Loading
Personal Weather Stations






























Interactive Weather Map
Tropical Storm Tracking
New forecast layout! Learn more

10-Day Weather Forecast

Advertisements
Track Severe Weather on mobile